Weather at Venice Municipal Airport

Public forecast

Using degrees Fahrenheit for public forecast. Weather courtesy of forecast.io.

Current aviation weather report (METAR) for Venice Municipal Airport

Retrieved 2021/09/28 19:35 UTC (23 minutes ago):

KVNC 281935Z AUTO 06010KT 9SM SCT060 30/17 A2997 RMK AO2

Closest aviation forecast (TAF) to Venice Municipal Airport

Forecast is more than 6 hours old.

Closest forecast is Sarasota Bradenton International Airport, 20.4 nm (37.7 km) NNW. Retrieved 2021/09/28 12:24 UTC (8 hours ago):

TAF KSRQ 281121Z 2812/2912 08007KT P6SM FEW250 FM281800 33009KT P6SM FEW045 FEW250 FM290200 06005KT P6SM BKN250